createdAt,value
2023-05-12T00:01:44.825Z,2.72
2023-05-12T00:04:05.810Z,2.22
2023-05-12T00:06:25.909Z,2.58
2023-05-12T00:08:45.942Z,2.97
2023-05-12T00:11:06.224Z,2.47
2023-05-12T00:13:26.690Z,2.70
2023-05-12T00:15:47.230Z,3.03
2023-05-12T00:18:07.409Z,2.67
2023-05-12T00:20:27.581Z,2.47
2023-05-12T00:22:47.905Z,2.67
2023-05-12T00:25:08.445Z,3.00
2023-05-12T00:27:31.348Z,2.40
2023-05-12T00:29:51.664Z,2.65
2023-05-12T00:32:11.997Z,2.45
2023-05-12T00:34:32.094Z,2.47
2023-05-12T00:36:52.650Z,3.42
2023-05-12T00:39:13.124Z,2.67
2023-05-12T00:41:33.376Z,3.38
2023-05-12T00:43:53.470Z,2.40
2023-05-12T00:46:14.088Z,6.28
2023-05-12T00:48:34.361Z,3.60
2023-05-12T00:50:55.439Z,2.70
2023-05-12T00:53:15.769Z,3.53
2023-05-12T00:55:36.813Z,3.30
2023-05-12T00:57:56.832Z,2.92
2023-05-12T01:00:18.045Z,2.80
2023-05-12T01:02:39.158Z,3.03
2023-05-12T01:04:59.814Z,2.67
2023-05-12T01:07:21.870Z,2.78
2023-05-12T01:09:41.978Z,2.72
2023-05-12T01:12:02.175Z,2.40
2023-05-12T01:14:22.376Z,2.35
2023-05-12T01:16:51.834Z,2.08
2023-05-12T01:19:19.113Z,2.22
2023-05-12T01:21:40.051Z,1.80
2023-05-12T01:24:06.427Z,2.20
2023-05-12T01:26:26.733Z,2.42
2023-05-12T01:28:47.455Z,2.08
2023-05-12T01:31:08.459Z,2.47
2023-05-12T01:33:29.115Z,2.70
2023-05-12T01:35:49.720Z,3.40
2023-05-12T01:38:10.083Z,3.45
2023-05-12T01:40:30.217Z,3.25
2023-05-12T01:42:50.462Z,3.08
2023-05-12T01:45:10.731Z,3.33
2023-05-12T01:47:31.168Z,2.83
2023-05-12T01:49:53.626Z,3.08
2023-05-12T01:52:13.687Z,2.85
2023-05-12T01:54:33.991Z,3.13
2023-05-12T01:56:54.114Z,2.90
2023-05-12T01:59:14.307Z,2.63
2023-05-12T02:01:34.412Z,3.38
2023-05-12T02:03:55.454Z,5.47
2023-05-12T02:06:16.372Z,2.78
2023-05-12T02:08:36.463Z,2.28
2023-05-12T02:11:06.621Z,2.53
2023-05-12T02:13:28.656Z,3.00
2023-05-12T02:15:48.808Z,2.60
2023-05-12T02:18:08.968Z,2.90
2023-05-12T02:20:29.345Z,3.55
2023-05-12T02:22:49.399Z,3.17
2023-05-12T02:25:09.860Z,3.30
2023-05-12T02:27:31.843Z,2.83
2023-05-12T02:29:53.389Z,3.00
2023-05-12T02:32:13.520Z,3.00
2023-05-12T02:34:33.586Z,2.42
2023-05-12T02:36:53.771Z,2.47
2023-05-12T02:39:13.978Z,2.38
2023-05-12T02:41:34.235Z,2.80
2023-05-12T02:43:54.422Z,2.92
2023-05-12T02:46:14.443Z,3.50
2023-05-12T02:48:34.552Z,2.75
2023-05-12T02:50:54.741Z,2.90
2023-05-12T02:53:14.818Z,2.28
2023-05-12T02:55:35.102Z,2.63
2023-05-12T02:57:55.126Z,3.10
2023-05-12T03:00:15.681Z,3.38
2023-05-12T03:02:36.812Z,3.22
2023-05-12T03:04:57.056Z,3.05
2023-05-12T03:07:17.291Z,2.42
2023-05-12T03:09:37.480Z,2.97
2023-05-12T03:11:57.500Z,3.10
2023-05-12T03:14:17.764Z,2.53
2023-05-12T03:16:37.985Z,2.90
2023-05-12T03:18:58.225Z,2.70
2023-05-12T03:21:18.700Z,2.42
2023-05-12T03:23:38.560Z,2.33
2023-05-12T03:25:58.629Z,2.70
2023-05-12T03:28:18.715Z,2.53
2023-05-12T03:30:38.622Z,2.70
2023-05-12T03:32:58.767Z,3.33
2023-05-12T03:35:18.955Z,2.85
2023-05-12T03:37:39.067Z,3.00
2023-05-12T03:39:59.317Z,2.15
2023-05-12T03:42:19.583Z,2.55
2023-05-12T03:44:40.180Z,2.38
2023-05-12T03:47:00.493Z,2.13
2023-05-12T03:49:20.971Z,2.80
2023-05-12T03:51:40.981Z,2.58
2023-05-12T03:54:01.193Z,2.88
2023-05-12T03:56:21.396Z,3.65
2023-05-12T03:58:41.678Z,2.33
2023-05-12T04:01:02.408Z,2.97
2023-05-12T04:03:22.711Z,2.63
2023-05-12T04:05:42.744Z,2.70
2023-05-12T04:08:03.127Z,2.70
2023-05-12T04:10:23.168Z,3.17
2023-05-12T04:12:43.428Z,2.88
2023-05-12T04:15:04.308Z,2.42
2023-05-12T04:17:24.810Z,2.70
2023-05-12T04:19:44.881Z,3.10
2023-05-12T04:22:05.237Z,2.80
2023-05-12T04:24:26.447Z,3.13
2023-05-12T04:26:46.536Z,2.60
2023-05-12T04:29:06.887Z,2.50
2023-05-12T04:31:27.129Z,3.50
2023-05-12T04:33:48.379Z,2.45
2023-05-12T04:36:08.678Z,2.90
2023-05-12T04:38:29.016Z,2.65
2023-05-12T04:40:49.269Z,2.65
2023-05-12T04:43:59.558Z,2.92
2023-05-12T04:45:51.120Z,2.70
2023-05-12T04:48:11.123Z,2.60
2023-05-12T04:50:31.483Z,2.97
2023-05-12T04:52:51.712Z,2.72
2023-05-12T04:55:11.937Z,2.85
2023-05-12T04:57:31.994Z,3.50
2023-05-12T04:59:52.579Z,2.33
2023-05-12T05:02:12.862Z,2.40
2023-05-12T05:04:32.978Z,2.70
2023-05-12T05:06:54.960Z,2.40
2023-05-12T05:09:15.143Z,2.63
2023-05-12T05:11:35.423Z,2.47
2023-05-12T05:13:55.810Z,2.60
2023-05-12T05:16:16.295Z,2.40
2023-05-12T05:18:37.338Z,2.10
2023-05-12T05:20:58.824Z,2.97
2023-05-12T05:23:19.825Z,2.65
2023-05-12T05:25:39.843Z,2.05
2023-05-12T05:27:59.981Z,2.80
2023-05-12T05:30:20.395Z,2.17
2023-05-12T05:32:40.575Z,1.92
2023-05-12T05:35:00.667Z,1.98
2023-05-12T05:37:21.008Z,2.13
2023-05-12T05:39:41.294Z,2.17
2023-05-12T05:42:01.316Z,2.20
2023-05-12T05:44:21.627Z,2.10
2023-05-12T05:46:41.755Z,2.15
2023-05-12T05:49:02.346Z,1.95
2023-05-12T05:51:22.548Z,3.00
2023-05-12T05:53:42.570Z,2.83
2023-05-12T05:56:02.748Z,2.25
2023-05-12T05:58:22.895Z,2.80
2023-05-12T06:00:43.093Z,3.20
2023-05-12T06:03:03.460Z,2.88
2023-05-12T06:05:23.886Z,1.60
2023-05-12T06:07:44.013Z,2.78
2023-05-12T06:10:04.492Z,2.70
2023-05-12T06:12:24.622Z,2.65
2023-05-12T06:14:44.727Z,2.25
2023-05-12T06:17:05.212Z,2.88
2023-05-12T06:19:25.144Z,2.78
2023-05-12T06:21:45.296Z,2.00
2023-05-12T06:24:05.878Z,2.70
2023-05-12T06:26:25.945Z,2.10
2023-05-12T06:28:46.088Z,2.42
2023-05-12T06:31:09.394Z,2.30
2023-05-12T06:33:29.497Z,2.28
2023-05-12T06:35:49.637Z,1.23
2023-05-12T06:38:09.717Z,2.20
2023-05-12T06:40:29.779Z,1.98
2023-05-12T06:42:49.964Z,2.85
2023-05-12T06:45:11.773Z,2.20
2023-05-12T06:47:31.922Z,3.22
2023-05-12T06:49:52.000Z,1.80
2023-05-12T06:52:12.323Z,1.67
2023-05-12T06:54:32.494Z,2.40
2023-05-12T06:56:53.128Z,3.65
2023-05-12T06:59:13.412Z,2.53
2023-05-12T07:01:33.851Z,2.00
2023-05-12T07:03:54.227Z,3.03
2023-05-12T07:06:14.473Z,2.38
2023-05-12T07:08:34.663Z,2.15
2023-05-12T07:10:54.882Z,2.30
2023-05-12T07:13:15.159Z,3.38
2023-05-12T07:15:35.721Z,2.10
2023-05-12T07:17:56.225Z,1.70
2023-05-12T07:20:16.179Z,2.50
2023-05-12T07:22:38.683Z,2.97
2023-05-12T07:24:59.098Z,2.40
2023-05-12T07:27:19.349Z,2.15
2023-05-12T07:29:39.465Z,2.35
2023-05-12T07:31:59.816Z,1.63
2023-05-12T07:34:20.508Z,1.75
2023-05-12T07:36:40.981Z,1.65
2023-05-12T07:39:01.193Z,2.70
2023-05-12T07:41:21.326Z,3.15
2023-05-12T07:43:41.370Z,2.58
2023-05-12T07:46:01.749Z,1.60
2023-05-12T07:48:22.130Z,2.00
2023-05-12T07:50:42.475Z,1.70
2023-05-12T07:53:02.704Z,1.90
2023-05-12T07:55:23.128Z,2.30
2023-05-12T07:57:43.382Z,2.65
2023-05-12T08:00:04.158Z,1.63
2023-05-12T08:02:24.143Z,2.13
2023-05-12T08:04:44.559Z,3.80
2023-05-12T08:07:04.976Z,1.88
2023-05-12T08:09:25.368Z,2.63
2023-05-12T08:11:47.549Z,3.28
2023-05-12T08:14:09.724Z,3.55
2023-05-12T08:16:30.176Z,2.33
2023-05-12T08:18:50.643Z,3.03
2023-05-12T08:21:11.321Z,2.38
2023-05-12T08:23:31.711Z,2.65
2023-05-12T08:25:51.978Z,1.40
2023-05-12T08:28:12.313Z,1.50
2023-05-12T08:30:32.254Z,1.25
2023-05-12T08:32:53.048Z,1.48
2023-05-12T08:35:13.310Z,1.30
2023-05-12T08:37:34.798Z,1.98
2023-05-12T08:39:55.517Z,1.58
2023-05-12T08:42:36.074Z,1.83
2023-05-12T08:44:56.298Z,1.65
2023-05-12T08:47:18.588Z,1.58
2023-05-12T08:49:39.387Z,1.42
2023-05-12T08:52:01.324Z,2.97
2023-05-12T08:54:22.452Z,2.13
2023-05-12T08:59:09.191Z,3.10
2023-05-12T09:01:29.873Z,1.52
2023-05-12T09:03:52.210Z,1.73
2023-05-12T09:06:13.473Z,1.55
2023-05-12T09:08:37.287Z,2.05
2023-05-12T09:10:58.174Z,1.20
2023-05-12T09:13:26.076Z,1.67
2023-05-12T09:15:48.076Z,1.30
2023-05-12T09:18:08.545Z,1.52
2023-05-12T09:20:31.861Z,1.45
2023-05-12T09:22:56.100Z,1.40
2023-05-12T09:25:20.990Z,2.05
2023-05-12T09:27:41.409Z,1.67
2023-05-12T09:30:01.555Z,1.50
2023-05-12T09:32:34.508Z,1.20
2023-05-12T09:37:15.582Z,1.95
2023-05-12T09:39:36.699Z,1.38
2023-05-12T09:41:57.088Z,2.38
2023-05-12T09:44:17.162Z,1.48
2023-05-12T09:46:39.171Z,1.75
2023-05-12T09:48:59.611Z,1.55
2023-05-12T09:51:19.876Z,1.20
2023-05-12T09:53:43.615Z,1.95
2023-05-12T09:56:03.844Z,1.10
2023-05-12T09:58:25.250Z,1.30
2023-05-12T10:03:16.739Z,1.50
2023-05-12T10:05:39.244Z,1.52
2023-05-12T10:08:00.558Z,1.52
2023-05-12T10:10:23.364Z,1.08
2023-05-12T10:12:43.843Z,1.00
2023-05-12T10:15:04.541Z,1.75
2023-05-12T10:17:24.991Z,1.58
2023-05-12T10:19:46.089Z,1.77
2023-05-12T10:22:10.548Z,1.35
2023-05-12T10:24:31.014Z,1.25
2023-05-12T10:26:51.381Z,1.70
2023-05-12T10:29:12.434Z,1.40
2023-05-12T10:31:32.715Z,1.20
2023-05-12T10:34:00.072Z,1.48
2023-05-12T10:36:20.515Z,1.55
2023-05-12T10:38:41.074Z,1.58
2023-05-12T10:41:02.407Z,1.10
2023-05-12T10:43:28.007Z,1.10
2023-05-12T10:45:47.804Z,1.98
2023-05-12T10:48:08.579Z,1.27
2023-05-12T10:50:29.859Z,1.13
2023-05-12T10:52:53.523Z,1.20
2023-05-12T10:55:14.005Z,1.38
2023-05-12T10:57:34.315Z,1.02
2023-05-12T10:59:59.845Z,1.33
2023-05-12T11:02:32.558Z,1.13
2023-05-12T11:04:58.054Z,0.98
2023-05-12T11:07:26.694Z,1.52
2023-05-12T11:09:56.983Z,1.30
2023-05-12T11:12:19.233Z,1.05
2023-05-12T11:14:40.415Z,0.90
2023-05-12T11:17:00.833Z,1.10
2023-05-12T11:19:21.161Z,0.80
2023-05-12T11:21:41.803Z,0.90
2023-05-12T11:24:02.458Z,1.08
2023-05-12T11:26:22.696Z,1.25
2023-05-12T11:28:42.838Z,1.02
2023-05-12T11:31:03.070Z,0.90
2023-05-12T11:33:23.590Z,1.00
2023-05-12T11:35:43.563Z,1.15
2023-05-12T11:38:15.027Z,1.13
2023-05-12T11:40:40.640Z,0.90
2023-05-12T11:43:09.401Z,0.90
2023-05-12T11:45:30.805Z,1.50
2023-05-12T11:47:51.296Z,1.30
2023-05-12T11:50:11.610Z,1.25
2023-05-12T11:52:31.938Z,1.10
2023-05-12T11:54:53.553Z,1.65
2023-05-12T11:57:24.229Z,0.93
2023-05-12T11:59:44.438Z,2.35
2023-05-12T12:02:04.661Z,1.05
2023-05-12T12:04:32.129Z,0.90
2023-05-12T12:06:52.350Z,1.00
2023-05-12T12:09:12.981Z,0.90
2023-05-12T12:11:34.150Z,0.90
2023-05-12T12:13:58.495Z,1.02
2023-05-12T12:16:18.911Z,1.13
2023-05-12T12:18:40.020Z,1.05
2023-05-12T12:21:00.481Z,1.20
2023-05-12T12:23:20.517Z,0.90
2023-05-12T12:25:40.800Z,1.20
2023-05-12T12:28:00.904Z,1.10
2023-05-12T12:30:21.606Z,0.80
2023-05-12T12:32:42.160Z,0.90
2023-05-12T12:35:03.838Z,1.10
2023-05-12T12:37:24.094Z,1.00
2023-05-12T12:39:44.372Z,0.90
2023-05-12T12:42:05.004Z,1.20
2023-05-12T12:44:25.105Z,1.20
2023-05-12T12:46:45.304Z,1.33
2023-05-12T12:49:05.604Z,1.10
2023-05-12T12:51:35.240Z,1.90
2023-05-12T12:54:02.837Z,1.80
2023-05-12T12:56:25.598Z,1.10
2023-05-12T12:58:45.891Z,1.05
2023-05-12T13:01:06.356Z,0.95
2023-05-12T13:03:26.792Z,1.10
2023-05-12T13:05:47.557Z,1.13
2023-05-12T13:08:08.137Z,1.65
2023-05-12T13:10:28.361Z,1.13
2023-05-12T13:12:48.732Z,1.50
2023-05-12T13:15:09.791Z,1.70
2023-05-12T13:17:30.096Z,1.60
2023-05-12T13:19:51.974Z,2.28
2023-05-12T13:22:11.939Z,1.55
2023-05-12T13:24:32.298Z,1.13
2023-05-12T13:26:52.181Z,1.40
2023-05-12T13:29:12.458Z,1.10
2023-05-12T13:31:32.770Z,1.45
2023-05-12T13:33:52.788Z,1.45
2023-05-12T13:36:13.053Z,1.65
2023-05-12T13:38:33.582Z,1.20
2023-05-12T13:40:54.036Z,1.48
2023-05-12T13:43:14.654Z,1.60
2023-05-12T13:45:35.112Z,1.83
2023-05-12T13:47:55.536Z,1.40
2023-05-12T13:50:16.103Z,1.65
2023-05-12T13:52:36.348Z,1.20
2023-05-12T13:54:56.330Z,1.60
2023-05-12T13:57:16.542Z,1.35
2023-05-12T13:59:36.802Z,1.60
2023-05-12T14:01:57.446Z,1.30
2023-05-12T14:04:17.833Z,1.20
2023-05-12T14:06:38.005Z,1.50
2023-05-12T14:08:58.075Z,1.63
2023-05-12T14:11:18.252Z,1.33
2023-05-12T14:13:38.159Z,1.20
2023-05-12T14:15:58.330Z,1.20
2023-05-12T14:18:18.460Z,1.00
2023-05-12T14:20:38.559Z,1.20
2023-05-12T14:22:58.704Z,1.10
2023-05-12T14:25:19.422Z,1.20
2023-05-12T14:27:39.974Z,0.90
2023-05-12T14:29:59.969Z,1.40
2023-05-12T14:32:20.039Z,1.00
2023-05-12T14:34:40.284Z,2.17
2023-05-12T14:37:00.352Z,1.10
2023-05-12T14:39:20.392Z,1.10
2023-05-12T14:41:40.590Z,1.10
2023-05-12T14:44:00.778Z,1.67
2023-05-12T14:46:21.013Z,1.10
2023-05-12T14:48:42.260Z,1.00
2023-05-12T14:51:03.159Z,1.20
2023-05-12T14:53:23.831Z,1.00
2023-05-12T14:55:45.026Z,1.10
2023-05-12T14:58:05.021Z,1.50
2023-05-12T15:00:25.510Z,1.20
2023-05-12T15:02:45.618Z,1.00
2023-05-12T15:05:06.857Z,1.10
2023-05-12T15:07:27.013Z,1.10
2023-05-12T15:09:47.436Z,1.17
2023-05-12T15:12:07.747Z,1.00
2023-05-12T15:14:27.718Z,1.13
2023-05-12T15:16:47.989Z,1.00
2023-05-12T15:19:08.637Z,1.20
2023-05-12T15:21:29.231Z,1.00
2023-05-12T15:23:49.405Z,1.27
2023-05-12T15:26:21.079Z,0.90
2023-05-12T15:28:50.028Z,1.05
2023-05-12T15:31:10.085Z,1.00
2023-05-12T15:33:32.139Z,0.90
2023-05-12T15:35:52.696Z,0.95
2023-05-12T15:38:13.020Z,0.90
2023-05-12T15:40:33.679Z,0.98
2023-05-12T15:42:53.924Z,1.20
2023-05-12T15:45:14.062Z,0.90
2023-05-12T15:47:35.276Z,0.90
2023-05-12T15:49:55.434Z,0.90
2023-05-12T15:52:15.483Z,0.90
2023-05-12T15:54:36.068Z,1.05
2023-05-12T15:56:56.125Z,1.00
2023-05-12T15:59:17.184Z,0.98
2023-05-12T16:01:37.162Z,1.00
2023-05-12T16:03:57.330Z,0.90
2023-05-12T16:06:17.861Z,0.90
2023-05-12T16:08:38.275Z,0.80
2023-05-12T16:10:58.436Z,0.90
2023-05-12T16:13:18.705Z,0.90
2023-05-12T16:15:38.951Z,1.75
2023-05-12T16:17:59.280Z,0.90
2023-05-12T16:20:19.495Z,1.15
2023-05-12T16:22:39.561Z,0.95
2023-05-12T16:24:59.890Z,0.90
2023-05-12T16:27:20.040Z,0.90
2023-05-12T16:29:44.628Z,0.90
2023-05-12T16:32:05.209Z,1.00
2023-05-12T16:34:25.646Z,0.90
2023-05-12T16:36:45.703Z,0.90
2023-05-12T16:39:05.938Z,1.00
2023-05-12T16:41:28.592Z,0.90
2023-05-12T16:43:48.808Z,0.88
2023-05-12T16:46:09.574Z,1.25
2023-05-12T16:48:33.482Z,0.90
2023-05-12T16:51:00.861Z,0.98
2023-05-12T16:53:21.026Z,1.00
2023-05-12T16:55:41.237Z,1.02
2023-05-12T16:58:01.585Z,0.90
2023-05-12T17:00:21.718Z,1.40
2023-05-12T17:02:42.059Z,1.55
2023-05-12T17:05:02.284Z,1.00
2023-05-12T17:07:22.668Z,0.90
2023-05-12T17:09:42.702Z,1.00
2023-05-12T17:12:03.739Z,0.90
2023-05-12T17:14:23.882Z,1.08
2023-05-12T17:16:44.399Z,0.88
2023-05-12T17:21:27.615Z,0.80
2023-05-12T17:23:48.049Z,0.90
2023-05-12T17:26:08.198Z,0.90
2023-05-12T17:28:28.503Z,0.80
2023-05-12T17:30:49.478Z,0.90
2023-05-12T17:33:09.785Z,0.93
2023-05-12T17:35:29.820Z,0.90
2023-05-12T17:37:54.678Z,0.90
2023-05-12T17:40:17.217Z,1.30
2023-05-12T17:42:37.459Z,0.80
2023-05-12T17:44:58.206Z,0.90
2023-05-12T17:47:18.376Z,1.30
2023-05-12T17:49:41.775Z,1.00
2023-05-12T17:52:02.990Z,1.70
2023-05-12T17:54:23.027Z,1.00
2023-05-12T17:56:44.079Z,1.00
2023-05-12T17:59:04.358Z,1.00
2023-05-12T18:01:24.480Z,1.00
2023-05-12T18:03:44.585Z,0.95
2023-05-12T18:06:04.962Z,1.23
2023-05-12T18:08:26.472Z,1.00
2023-05-12T18:10:46.524Z,1.20
2023-05-12T18:13:06.598Z,1.08
2023-05-12T18:15:28.063Z,1.10
2023-05-12T18:17:48.423Z,1.55
2023-05-12T18:20:08.940Z,1.23
2023-05-12T18:22:29.278Z,1.10
2023-05-12T18:24:50.242Z,1.00
2023-05-12T18:27:10.558Z,1.17
2023-05-12T18:29:30.757Z,1.00
2023-05-12T18:31:51.022Z,1.20
2023-05-12T18:34:11.572Z,1.10
2023-05-12T18:36:31.890Z,1.00
2023-05-12T18:38:51.971Z,1.20
2023-05-12T18:41:12.556Z,1.00
2023-05-12T18:43:34.121Z,1.30
2023-05-12T18:45:54.143Z,2.33
2023-05-12T18:48:14.386Z,1.30
2023-05-12T18:50:34.589Z,1.30
2023-05-12T18:52:54.611Z,1.45
2023-05-12T18:55:14.798Z,1.27
2023-05-12T18:57:34.987Z,1.40
2023-05-12T18:59:55.268Z,1.30
2023-05-12T19:02:16.705Z,1.00
2023-05-12T19:04:36.902Z,1.05
2023-05-12T19:06:57.279Z,1.02
2023-05-12T19:09:17.417Z,1.10
2023-05-12T19:11:37.658Z,1.00
2023-05-12T19:13:57.956Z,1.20
2023-05-12T19:16:18.676Z,1.27
2023-05-12T19:18:38.701Z,1.40
2023-05-12T19:20:58.867Z,1.40
2023-05-12T19:23:19.107Z,1.15
2023-05-12T19:25:39.908Z,1.48
2023-05-12T19:28:00.359Z,3.58
2023-05-12T19:30:20.646Z,1.40
2023-05-12T19:32:41.913Z,1.33
2023-05-12T19:35:05.103Z,1.40
2023-05-12T19:37:26.692Z,1.30
2023-05-12T19:39:47.337Z,1.23
2023-05-12T19:42:07.773Z,1.40
2023-05-12T19:44:29.891Z,3.10
2023-05-12T19:46:50.905Z,1.40
2023-05-12T19:49:10.832Z,1.48
2023-05-12T19:51:31.382Z,1.08
2023-05-12T19:53:51.645Z,1.30
2023-05-12T19:56:11.836Z,1.20
2023-05-12T19:58:32.263Z,1.60
2023-05-12T20:00:52.939Z,1.45
2023-05-12T20:03:13.360Z,1.88
2023-05-12T20:05:37.130Z,1.40
2023-05-12T20:07:57.124Z,1.42
2023-05-12T20:10:17.470Z,2.90
2023-05-12T20:12:37.646Z,1.60
2023-05-12T20:14:57.866Z,1.42
2023-05-12T20:17:18.172Z,1.55
2023-05-12T20:19:38.741Z,1.50
2023-05-12T20:21:59.063Z,1.50
2023-05-12T20:24:19.116Z,1.30
2023-05-12T20:26:40.051Z,1.40
2023-05-12T20:29:00.066Z,1.92
2023-05-12T20:31:20.462Z,1.40
2023-05-12T20:33:41.280Z,1.73
2023-05-12T20:36:01.253Z,1.88
2023-05-12T20:38:23.532Z,1.63
2023-05-12T20:40:43.637Z,3.20
2023-05-12T20:43:03.917Z,2.22
2023-05-12T20:45:24.331Z,2.20
2023-05-12T20:47:44.556Z,1.50
2023-05-12T20:50:05.257Z,2.30
2023-05-12T20:52:28.276Z,1.65
2023-05-12T20:54:48.354Z,1.90
2023-05-12T20:57:09.589Z,1.60
2023-05-12T20:59:29.834Z,2.20
2023-05-12T21:01:50.003Z,3.47
2023-05-12T21:04:11.042Z,2.60
2023-05-12T21:06:33.107Z,2.33
2023-05-12T21:08:53.433Z,2.10
2023-05-12T21:11:15.421Z,1.70
2023-05-12T21:13:35.812Z,1.67
2023-05-12T21:15:56.038Z,1.45
2023-05-12T21:18:16.099Z,1.70
2023-05-12T21:20:36.672Z,1.60
2023-05-12T21:22:56.879Z,1.40
2023-05-12T21:25:17.126Z,1.55
2023-05-12T21:27:40.778Z,1.50
2023-05-12T21:30:01.138Z,1.83
2023-05-12T21:32:22.417Z,1.65
2023-05-12T21:34:44.696Z,1.30
2023-05-12T21:37:04.823Z,1.30
2023-05-12T21:39:24.818Z,1.40
2023-05-12T21:41:45.380Z,1.30
2023-05-12T21:44:05.631Z,1.40
2023-05-12T21:46:25.505Z,1.55
2023-05-12T21:48:45.605Z,1.27
2023-05-12T21:51:05.804Z,1.60
2023-05-12T21:53:25.913Z,1.45
2023-05-12T21:55:45.959Z,1.48
2023-05-12T21:58:06.043Z,1.30
2023-05-12T22:00:26.160Z,1.10
2023-05-12T22:02:47.088Z,1.25
2023-05-12T22:05:07.901Z,1.73
2023-05-12T22:07:28.848Z,1.52
2023-05-12T22:09:49.335Z,1.20
2023-05-12T22:12:14.878Z,1.30
2023-05-12T22:14:36.225Z,1.50
2023-05-12T22:16:56.406Z,1.73
2023-05-12T22:19:17.057Z,1.50
2023-05-12T22:21:37.483Z,1.70
2023-05-12T22:23:57.696Z,1.30
2023-05-12T22:26:17.641Z,1.30
2023-05-12T22:28:37.949Z,1.40
2023-05-12T22:30:58.024Z,1.95
2023-05-12T22:33:18.104Z,1.40
2023-05-12T22:35:38.110Z,1.58
2023-05-12T22:37:58.356Z,3.05
2023-05-12T22:40:20.848Z,3.08
2023-05-12T22:42:41.074Z,2.72
2023-05-12T22:45:04.032Z,2.33
2023-05-12T22:47:24.098Z,2.33
2023-05-12T22:49:44.068Z,2.60
2023-05-12T22:52:05.241Z,2.20
2023-05-12T22:54:25.515Z,1.70
2023-05-12T22:56:45.670Z,1.60
2023-05-12T22:59:05.709Z,1.60
2023-05-12T23:01:25.939Z,1.52
2023-05-12T23:03:46.279Z,1.73
2023-05-12T23:06:06.326Z,1.50
2023-05-12T23:08:26.546Z,1.42
2023-05-12T23:10:46.701Z,1.70
2023-05-12T23:13:07.111Z,1.50
2023-05-12T23:15:27.516Z,1.70
2023-05-12T23:17:47.879Z,2.03
2023-05-12T23:20:08.203Z,1.77
2023-05-12T23:22:28.462Z,2.15
2023-05-12T23:24:48.528Z,1.30
2023-05-12T23:27:08.803Z,2.08
2023-05-12T23:29:29.049Z,2.20
2023-05-12T23:31:48.993Z,2.38
2023-05-12T23:34:09.205Z,2.20
2023-05-12T23:36:30.628Z,1.83
2023-05-12T23:38:53.737Z,2.17
2023-05-12T23:43:33.985Z,1.80
2023-05-12T23:45:54.271Z,2.13
2023-05-12T23:48:14.611Z,2.40
2023-05-12T23:50:34.844Z,2.30
2023-05-12T23:52:55.822Z,1.80
2023-05-12T23:55:16.049Z,2.55
2023-05-12T23:57:36.622Z,1.52
2023-05-12T23:59:56.574Z,1.33
